createdAt,value
2022-09-12T00:00:03.268Z,13.41
2022-09-12T00:01:03.289Z,13.41
2022-09-12T00:02:03.331Z,13.38
2022-09-12T00:03:03.261Z,13.39
2022-09-12T00:04:03.249Z,13.39
2022-09-12T00:05:03.244Z,13.36
2022-09-12T00:06:03.228Z,13.36
2022-09-12T00:07:03.223Z,13.35
2022-09-12T00:08:03.214Z,13.32
2022-09-12T00:09:03.204Z,13.32
2022-09-12T00:10:03.216Z,13.35
2022-09-12T00:11:03.178Z,13.32
2022-09-12T00:12:03.175Z,13.31
2022-09-12T00:13:03.161Z,13.31
2022-09-12T00:14:03.143Z,13.31
2022-09-12T00:15:03.157Z,13.31
2022-09-12T00:16:03.145Z,13.28
2022-09-12T00:17:03.136Z,13.27
2022-09-12T00:18:03.113Z,13.27
2022-09-12T00:19:03.346Z,13.27
2022-09-12T00:20:03.094Z,13.24
2022-09-12T00:21:03.099Z,13.24
2022-09-12T00:22:03.095Z,13.24
2022-09-12T00:23:03.065Z,13.25
2022-09-12T00:24:03.070Z,13.22
2022-09-12T00:25:03.047Z,13.22
2022-09-12T00:26:03.036Z,13.21
2022-09-12T00:27:03.045Z,13.21
2022-09-12T00:28:03.050Z,13.19
2022-09-12T00:29:03.034Z,13.17
2022-09-12T00:30:03.007Z,13.16
2022-09-12T00:31:03.013Z,13.17
2022-09-12T00:32:02.988Z,13.16
2022-09-12T00:33:02.980Z,13.16
2022-09-12T00:34:03.103Z,13.14
2022-09-12T00:35:02.973Z,13.14
2022-09-12T00:36:02.964Z,13.13
2022-09-12T00:37:02.962Z,13.14
2022-09-12T00:38:02.940Z,13.16
2022-09-12T00:39:02.945Z,13.13
2022-09-12T00:40:02.994Z,13.13
2022-09-12T00:41:02.932Z,13.12
2022-09-12T00:42:02.916Z,13.13
2022-09-12T00:43:02.914Z,13.10
2022-09-12T00:44:02.896Z,13.10
2022-09-12T00:45:02.885Z,13.10
2022-09-12T00:46:02.920Z,13.09
2022-09-12T00:47:02.878Z,13.09
2022-09-12T00:48:02.859Z,13.06
2022-09-12T00:49:02.859Z,13.04
2022-09-12T00:50:02.833Z,13.06
2022-09-12T00:51:02.825Z,13.06
2022-09-12T00:52:02.820Z,13.07
2022-09-12T00:53:02.819Z,13.04
2022-09-12T00:54:02.797Z,13.03
2022-09-12T00:55:02.788Z,13.03
2022-09-12T00:56:02.804Z,13.01
2022-09-12T00:57:02.776Z,13.01
2022-09-12T00:58:02.788Z,13.01
2022-09-12T00:59:02.762Z,13.01
2022-09-12T01:00:02.765Z,12.99
2022-09-12T01:01:02.818Z,12.99
2022-09-12T01:02:03.037Z,12.98
2022-09-12T01:03:02.718Z,12.98
2022-09-12T01:04:02.744Z,12.98
2022-09-12T01:05:02.700Z,12.98
2022-09-12T01:06:02.712Z,12.99
2022-09-12T01:07:02.680Z,12.99
2022-09-12T01:08:02.694Z,13.01
2022-09-12T01:09:02.675Z,12.99
2022-09-12T01:10:02.671Z,12.99
2022-09-12T01:11:02.655Z,12.98
2022-09-12T01:12:02.657Z,12.98
2022-09-12T01:13:02.631Z,12.96
2022-09-12T01:14:02.625Z,12.96
2022-09-12T01:15:02.624Z,12.98
2022-09-12T01:16:02.670Z,12.96
2022-09-12T01:17:02.594Z,12.96
2022-09-12T01:18:02.585Z,12.96
2022-09-12T01:19:02.574Z,12.95
2022-09-12T01:20:02.574Z,12.94
2022-09-12T01:21:02.563Z,12.94
2022-09-12T01:22:02.580Z,12.94
2022-09-12T01:23:02.536Z,12.92
2022-09-12T01:24:02.550Z,12.92
2022-09-12T01:25:02.537Z,12.89
2022-09-12T01:26:02.517Z,12.91
2022-09-12T01:27:02.520Z,12.89
2022-09-12T01:28:02.522Z,12.89
2022-09-12T01:29:02.527Z,12.85
2022-09-12T01:30:02.485Z,12.88
2022-09-12T01:31:02.482Z,12.89
2022-09-12T01:32:02.512Z,12.87
2022-09-12T01:33:02.463Z,12.88
2022-09-12T01:34:02.484Z,12.88
2022-09-12T01:35:02.430Z,12.88
2022-09-12T01:36:02.444Z,12.88
2022-09-12T01:37:02.425Z,12.88
2022-09-12T01:38:02.412Z,12.87
2022-09-12T01:39:02.402Z,12.88
2022-09-12T01:40:02.477Z,12.88
2022-09-12T01:41:02.382Z,12.85
2022-09-12T01:42:02.394Z,12.87
2022-09-12T01:43:02.365Z,12.85
2022-09-12T01:44:02.376Z,12.81
2022-09-12T01:45:02.357Z,12.84
2022-09-12T01:46:02.430Z,12.80
2022-09-12T01:47:02.339Z,12.81
2022-09-12T01:48:02.338Z,12.80
2022-09-12T01:49:02.329Z,12.80
2022-09-12T01:50:02.319Z,12.77
2022-09-12T01:51:02.309Z,12.79
2022-09-12T01:52:02.321Z,12.79
2022-09-12T01:53:02.290Z,12.76
2022-09-12T01:54:02.287Z,12.77
2022-09-12T01:55:05.390Z,12.74
2022-09-12T01:56:02.271Z,12.74
2022-09-12T01:57:02.245Z,12.74
2022-09-12T01:58:02.271Z,12.74
2022-09-12T01:59:02.234Z,12.73
2022-09-12T02:00:02.233Z,12.71
2022-09-12T02:01:02.228Z,12.70
2022-09-12T02:02:02.275Z,12.71
2022-09-12T02:03:02.193Z,12.71
2022-09-12T02:04:02.303Z,12.70
2022-09-12T02:05:02.183Z,12.70
2022-09-12T02:06:02.184Z,12.67
2022-09-12T02:07:02.165Z,12.67
2022-09-12T02:08:02.166Z,12.63
2022-09-12T02:09:02.151Z,12.62
2022-09-12T02:10:02.246Z,12.62
2022-09-12T02:11:02.122Z,12.62
2022-09-12T02:12:02.125Z,12.61
2022-09-12T02:13:02.120Z,12.59
2022-09-12T02:14:02.114Z,12.59
2022-09-12T02:15:02.084Z,12.58
2022-09-12T02:16:02.119Z,12.54
2022-09-12T02:17:02.078Z,12.55
2022-09-12T02:18:02.064Z,12.55
2022-09-12T02:19:02.068Z,12.54
2022-09-12T02:20:02.046Z,12.52
2022-09-12T02:21:02.051Z,12.51
2022-09-12T02:22:02.056Z,12.49
2022-09-12T02:23:02.016Z,12.51
2022-09-12T02:24:02.017Z,12.51
2022-09-12T02:25:02.013Z,12.51
2022-09-12T02:26:02.011Z,12.51
2022-09-12T02:27:01.991Z,12.48
2022-09-12T02:28:01.998Z,12.46
2022-09-12T02:29:01.969Z,12.48
2022-09-12T02:30:01.967Z,12.48
2022-09-12T02:31:02.007Z,12.48
2022-09-12T02:32:01.949Z,12.46
2022-09-12T02:33:01.944Z,12.46
2022-09-12T02:34:01.967Z,12.44
2022-09-12T02:35:01.910Z,12.44
2022-09-12T02:36:01.910Z,12.46
2022-09-12T02:37:01.901Z,12.43
2022-09-12T02:38:01.916Z,12.43
2022-09-12T02:39:01.884Z,12.41
2022-09-12T02:40:01.953Z,12.41
2022-09-12T02:41:01.876Z,12.41
2022-09-12T02:42:01.862Z,12.38
2022-09-12T02:43:01.864Z,12.37
2022-09-12T02:44:01.856Z,12.37
2022-09-12T02:45:01.831Z,12.34
2022-09-12T02:46:01.946Z,12.36
2022-09-12T02:47:01.813Z,12.34
2022-09-12T02:48:01.818Z,12.33
2022-09-12T02:49:01.808Z,12.31
2022-09-12T02:50:01.798Z,12.33
2022-09-12T02:51:01.789Z,12.30
2022-09-12T02:52:01.796Z,12.31
2022-09-12T02:53:01.769Z,12.29
2022-09-12T02:54:01.756Z,12.29
2022-09-12T02:55:01.748Z,12.26
2022-09-12T02:56:01.750Z,12.26
2022-09-12T02:57:01.731Z,12.30
2022-09-12T02:58:01.761Z,12.29
2022-09-12T02:59:01.722Z,12.30
2022-09-12T03:00:01.707Z,12.26
2022-09-12T03:01:01.721Z,12.26
2022-09-12T03:02:01.698Z,12.26
2022-09-12T03:03:01.680Z,12.26
2022-09-12T03:04:01.704Z,12.26
2022-09-12T03:05:01.659Z,12.26
2022-09-12T03:06:01.650Z,12.25
2022-09-12T03:07:01.654Z,12.25
2022-09-12T03:08:01.655Z,12.23
2022-09-12T03:09:01.635Z,12.23
2022-09-12T03:10:01.655Z,12.23
2022-09-12T03:11:01.615Z,12.23
2022-09-12T03:12:01.601Z,12.23
2022-09-12T03:13:01.596Z,12.22
2022-09-12T03:14:01.596Z,12.22
2022-09-12T03:15:01.669Z,12.22
2022-09-12T03:16:01.574Z,12.21
2022-09-12T03:17:01.554Z,12.18
2022-09-12T03:18:01.555Z,12.18
2022-09-12T03:19:01.548Z,12.18
2022-09-12T03:20:01.541Z,12.18
2022-09-12T03:21:01.515Z,12.16
2022-09-12T03:22:01.539Z,12.18
2022-09-12T03:23:01.496Z,12.16
2022-09-12T03:24:01.513Z,12.15
2022-09-12T03:25:01.488Z,12.13
2022-09-12T03:26:01.492Z,12.15
2022-09-12T03:27:01.480Z,12.12
2022-09-12T03:28:01.481Z,12.11
2022-09-12T03:29:01.447Z,12.11
2022-09-12T03:30:01.448Z,12.11
2022-09-12T03:31:01.467Z,12.11
2022-09-12T03:32:01.429Z,12.07
2022-09-12T03:33:01.410Z,12.11
2022-09-12T03:34:01.442Z,12.07
2022-09-12T03:35:01.406Z,12.07
2022-09-12T03:36:01.404Z,12.07
2022-09-12T03:37:01.370Z,12.05
2022-09-12T03:38:01.370Z,12.03
2022-09-12T03:39:01.372Z,12.04
2022-09-12T03:40:01.386Z,12.00
2022-09-12T03:41:01.341Z,11.98
2022-09-12T03:42:01.333Z,11.97
2022-09-12T03:43:01.322Z,11.97
2022-09-12T03:44:01.335Z,11.97
2022-09-12T03:45:01.320Z,11.97
2022-09-12T03:46:01.363Z,11.97
2022-09-12T03:47:01.284Z,11.96
2022-09-12T03:48:01.297Z,11.96
2022-09-12T03:49:01.285Z,11.96
2022-09-12T03:50:01.264Z,11.94
2022-09-12T03:51:01.269Z,11.96
2022-09-12T03:52:01.265Z,11.93
2022-09-12T03:53:01.235Z,11.93
2022-09-12T03:54:01.240Z,11.96
2022-09-12T03:55:01.231Z,11.93
2022-09-12T03:56:01.230Z,11.90
2022-09-12T03:57:01.210Z,11.90
2022-09-12T03:58:01.225Z,11.93
2022-09-12T03:59:01.192Z,11.88
2022-09-12T04:00:01.191Z,11.90
2022-09-12T04:01:01.200Z,11.90
2022-09-12T04:02:01.213Z,11.90
2022-09-12T04:03:01.147Z,11.87
2022-09-12T04:04:01.161Z,11.88
2022-09-12T04:05:01.143Z,11.90
2022-09-12T04:06:01.120Z,11.88
2022-09-12T04:07:01.112Z,11.88
2022-09-12T04:08:01.125Z,11.87
2022-09-12T04:09:01.105Z,11.88
2022-09-12T04:10:01.100Z,11.87
2022-09-12T04:11:01.092Z,11.88
2022-09-12T04:12:01.087Z,11.84
2022-09-12T04:13:01.075Z,11.85
2022-09-12T04:14:01.062Z,11.87
2022-09-12T04:15:01.057Z,11.85
2022-09-12T04:16:01.061Z,11.84
2022-09-12T04:17:01.033Z,11.85
2022-09-12T04:18:05.593Z,11.82
2022-09-12T04:19:01.037Z,11.82
2022-09-12T04:20:01.006Z,11.82
2022-09-12T04:21:01.008Z,11.81
2022-09-12T04:22:01.018Z,11.79
2022-09-12T04:23:00.993Z,11.78
2022-09-12T04:24:00.976Z,11.78
2022-09-12T04:25:00.967Z,11.77
2022-09-12T04:26:00.969Z,11.74
2022-09-12T04:27:04.799Z,11.75
2022-09-12T04:28:00.966Z,11.70
2022-09-12T04:29:00.927Z,11.74
2022-09-12T04:30:00.942Z,11.74
2022-09-12T04:31:00.939Z,11.72
2022-09-12T04:32:00.921Z,11.74
2022-09-12T04:33:03.006Z,11.74
2022-09-12T04:34:00.912Z,11.72
2022-09-12T04:35:00.893Z,11.72
2022-09-12T04:36:00.880Z,11.72
2022-09-12T04:37:00.871Z,11.74
2022-09-12T04:38:00.874Z,11.75
2022-09-12T04:39:00.862Z,11.77
2022-09-12T04:40:00.898Z,11.75
2022-09-12T04:41:00.844Z,11.78
2022-09-12T04:42:00.844Z,11.77
2022-09-12T04:43:00.812Z,11.77
2022-09-12T04:44:00.825Z,11.77
2022-09-12T04:45:00.800Z,11.78
2022-09-12T04:46:00.848Z,11.81
2022-09-12T04:47:00.783Z,11.79
2022-09-12T04:48:00.784Z,11.82
2022-09-12T04:49:00.783Z,11.82
2022-09-12T04:50:00.777Z,11.82
2022-09-12T04:51:00.745Z,11.87
2022-09-12T04:52:00.768Z,11.85
2022-09-12T04:53:00.734Z,11.85
2022-09-12T04:54:00.728Z,11.87
2022-09-12T04:55:00.716Z,11.88
2022-09-12T04:56:00.716Z,11.88
2022-09-12T04:57:00.711Z,11.90
2022-09-12T04:58:00.710Z,11.87
2022-09-12T04:59:00.691Z,11.88
2022-09-12T05:00:05.168Z,11.88
2022-09-12T05:01:00.720Z,11.90
2022-09-12T05:02:00.673Z,11.88
2022-09-12T05:03:00.662Z,11.88
2022-09-12T05:04:00.657Z,11.90
2022-09-12T05:05:00.642Z,11.88
2022-09-12T05:06:00.626Z,11.87
2022-09-12T05:07:00.622Z,11.90
2022-09-12T05:08:00.611Z,11.88
2022-09-12T05:09:00.610Z,11.90
2022-09-12T05:10:00.600Z,11.94
2022-09-12T05:11:00.581Z,11.94
2022-09-12T05:12:04.935Z,11.93
2022-09-12T05:13:00.571Z,11.93
2022-09-12T05:14:00.553Z,11.94
2022-09-12T05:15:00.551Z,11.94
2022-09-12T05:16:00.565Z,11.93
2022-09-12T05:17:00.580Z,11.97
2022-09-12T05:18:00.524Z,11.97
2022-09-12T05:19:00.513Z,11.98
2022-09-12T05:20:00.517Z,12.03
2022-09-12T05:21:00.517Z,12.01
2022-09-12T05:22:00.594Z,12.01
2022-09-12T05:23:00.498Z,12.03
2022-09-12T05:24:00.488Z,12.05
2022-09-12T05:25:00.482Z,12.05
2022-09-12T05:26:00.457Z,12.08
2022-09-12T05:27:00.455Z,12.08
2022-09-12T05:28:00.455Z,12.11
2022-09-12T05:29:00.437Z,12.12
2022-09-12T05:30:00.416Z,12.13
2022-09-12T05:31:00.451Z,12.13
2022-09-12T05:32:00.420Z,12.16
2022-09-12T05:33:00.417Z,12.16
2022-09-12T05:34:00.399Z,12.19
2022-09-12T05:35:00.424Z,12.21
2022-09-12T05:36:00.388Z,12.23
2022-09-12T05:37:00.486Z,12.21
2022-09-12T05:38:00.375Z,12.23
2022-09-12T05:39:00.366Z,12.22
2022-09-12T05:40:00.409Z,12.25
2022-09-12T05:41:00.339Z,12.25
2022-09-12T05:42:00.336Z,12.26
2022-09-12T05:43:00.321Z,12.26
2022-09-12T05:44:00.308Z,12.30
2022-09-12T05:45:00.302Z,12.30
2022-09-12T05:46:00.316Z,12.33
2022-09-12T05:47:00.302Z,12.33
2022-09-12T05:48:00.285Z,12.36
2022-09-12T05:49:00.286Z,12.37
2022-09-12T05:50:00.266Z,12.40
2022-09-12T05:51:00.267Z,12.43
2022-09-12T05:52:00.357Z,12.44
2022-09-12T05:53:00.233Z,12.46
2022-09-12T05:54:00.234Z,12.51
2022-09-12T05:55:00.235Z,12.52
2022-09-12T05:56:00.218Z,12.54
2022-09-12T05:57:00.205Z,12.55
2022-09-12T05:58:00.218Z,12.55
2022-09-12T05:59:00.187Z,12.61
2022-09-12T06:00:00.190Z,12.59
2022-09-12T06:01:00.244Z,12.59
2022-09-12T06:02:00.219Z,12.62
2022-09-12T06:03:00.148Z,12.63
2022-09-12T06:04:00.161Z,12.67
2022-09-12T06:05:00.141Z,12.66
2022-09-12T06:06:00.119Z,12.67
2022-09-12T06:07:00.120Z,12.67
2022-09-12T06:08:00.112Z,12.71
2022-09-12T06:09:00.098Z,12.74
2022-09-12T06:10:00.104Z,12.76
2022-09-12T06:11:02.295Z,12.77
2022-09-12T06:12:00.090Z,12.79
2022-09-12T06:13:00.074Z,12.80
2022-09-12T06:14:00.054Z,12.80
2022-09-12T06:15:00.044Z,12.81
2022-09-12T06:16:00.055Z,12.87
2022-09-12T06:17:00.066Z,12.88
2022-09-12T06:18:00.013Z,12.87
2022-09-12T06:19:00.014Z,12.91
2022-09-12T06:20:00.015Z,12.91
2022-09-12T06:21:00.012Z,12.94
2022-09-12T06:22:00.005Z,12.94
2022-09-12T06:22:59.974Z,12.96
2022-09-12T06:23:59.978Z,12.96
2022-09-12T06:24:59.954Z,12.98
2022-09-12T06:25:59.958Z,12.98
2022-09-12T06:26:59.956Z,12.99
2022-09-12T06:27:59.956Z,13.01
2022-09-12T06:28:59.939Z,13.04
2022-09-12T06:29:59.920Z,13.06
2022-09-12T06:30:59.942Z,13.04
2022-09-12T06:31:59.897Z,13.06
2022-09-12T06:32:59.888Z,13.09
2022-09-12T06:33:59.885Z,13.09
2022-09-12T06:34:59.867Z,13.10
2022-09-12T06:35:59.859Z,13.12
2022-09-12T06:36:59.871Z,13.12
2022-09-12T06:37:59.852Z,13.14
2022-09-12T06:38:59.839Z,13.16
2022-09-12T06:39:59.877Z,13.17
2022-09-12T06:40:59.820Z,13.22
2022-09-12T06:41:59.823Z,13.24
2022-09-12T06:42:59.809Z,13.27
2022-09-12T06:43:59.790Z,13.27
2022-09-12T06:44:59.805Z,13.28
2022-09-12T06:45:59.814Z,13.29
2022-09-12T06:46:59.775Z,13.32
2022-09-12T06:47:59.761Z,13.32
2022-09-12T06:48:59.760Z,13.35
2022-09-12T06:49:59.743Z,13.38
2022-09-12T06:50:59.742Z,13.39
2022-09-12T06:51:59.745Z,13.41
2022-09-12T06:52:59.724Z,13.43
2022-09-12T06:53:59.724Z,13.46
2022-09-12T06:54:59.718Z,13.46
2022-09-12T06:55:59.694Z,13.48
2022-09-12T06:56:59.685Z,13.54
2022-09-12T06:57:59.699Z,13.51
2022-09-12T06:58:59.689Z,13.54
2022-09-12T06:59:59.664Z,13.57
2022-09-12T07:00:59.774Z,13.55
2022-09-12T07:01:59.703Z,13.59
2022-09-12T07:02:59.636Z,13.59
2022-09-12T07:03:59.640Z,13.59
2022-09-12T07:04:59.618Z,13.63
2022-09-12T07:05:59.607Z,13.62
2022-09-12T07:06:59.598Z,13.63
2022-09-12T07:07:59.589Z,13.62
2022-09-12T07:08:59.587Z,13.63
2022-09-12T07:09:59.602Z,13.62
2022-09-12T07:10:59.568Z,13.63
2022-09-12T07:11:59.549Z,13.66
2022-09-12T07:12:59.564Z,13.66
2022-09-12T07:13:59.539Z,13.68
2022-09-12T07:14:59.555Z,13.71
2022-09-12T07:15:59.529Z,13.69
2022-09-12T07:16:59.547Z,13.71
2022-09-12T07:17:59.515Z,13.72
2022-09-12T07:18:59.491Z,13.75
2022-09-12T07:19:59.526Z,13.76
2022-09-12T07:20:59.496Z,13.76
2022-09-12T07:21:59.489Z,13.80
2022-09-12T07:22:59.465Z,13.81
2022-09-12T07:23:59.443Z,13.81
2022-09-12T07:24:59.457Z,13.83
2022-09-12T07:25:59.439Z,13.84
2022-09-12T07:26:59.439Z,13.86
2022-09-12T07:27:59.425Z,13.88
2022-09-12T07:29:13.196Z,13.88
2022-09-12T07:29:59.439Z,13.91
2022-09-12T07:30:59.426Z,13.88
2022-09-12T07:31:59.376Z,13.94
2022-09-12T07:32:59.377Z,13.93
2022-09-12T07:33:59.391Z,13.98
2022-09-12T07:34:59.357Z,13.98
2022-09-12T07:35:59.360Z,13.99
2022-09-12T07:36:59.353Z,13.99
2022-09-12T07:37:59.328Z,14.02
2022-09-12T07:38:59.327Z,14.02
2022-09-12T07:39:59.414Z,14.05
2022-09-12T07:40:59.325Z,14.04
2022-09-12T07:41:59.304Z,14.09
2022-09-12T07:42:59.303Z,14.09
2022-09-12T07:43:59.278Z,14.12
2022-09-12T07:44:59.279Z,14.13
2022-09-12T07:45:59.311Z,14.17
2022-09-12T07:46:59.265Z,14.19
2022-09-12T07:47:59.255Z,14.24
2022-09-12T07:48:59.245Z,14.26
2022-09-12T07:49:59.222Z,14.27
2022-09-12T07:50:59.235Z,14.29
2022-09-12T07:51:59.226Z,14.30
2022-09-12T07:52:59.213Z,14.34
2022-09-12T07:53:59.193Z,14.35
2022-09-12T07:54:59.183Z,14.36
2022-09-12T07:55:59.187Z,14.41
2022-09-12T07:56:59.188Z,14.39
2022-09-12T07:57:59.174Z,14.44
2022-09-12T07:58:59.160Z,14.46
2022-09-12T07:59:59.135Z,14.52
2022-09-12T08:00:59.240Z,14.52
2022-09-12T08:01:59.130Z,14.56
2022-09-12T08:02:59.131Z,14.57
2022-09-12T08:03:59.218Z,14.60
2022-09-12T08:04:59.121Z,14.64
2022-09-12T08:05:59.088Z,14.66
2022-09-12T08:06:59.080Z,14.71
2022-09-12T08:07:59.068Z,14.74
2022-09-12T08:08:59.073Z,14.79
2022-09-12T08:09:59.059Z,14.82
2022-09-12T08:10:59.061Z,14.87
2022-09-12T08:11:59.029Z,14.94
2022-09-12T08:12:59.043Z,15.00
2022-09-12T08:13:59.025Z,15.05
2022-09-12T08:14:59.011Z,15.13
2022-09-12T08:15:59.086Z,15.20
2022-09-12T08:16:59.004Z,15.28
2022-09-12T08:17:58.992Z,15.34
2022-09-12T08:18:58.985Z,15.44
2022-09-12T08:19:58.984Z,15.52
2022-09-12T08:20:58.966Z,15.64
2022-09-12T08:21:58.962Z,15.68
2022-09-12T08:22:58.947Z,15.76
2022-09-12T08:23:58.925Z,15.84
2022-09-12T08:24:58.927Z,15.91
2022-09-12T08:25:59.045Z,15.95
2022-09-12T08:26:58.915Z,16.01
2022-09-12T08:27:58.905Z,16.06
2022-09-12T08:28:58.898Z,16.13
2022-09-12T08:29:58.866Z,16.16
2022-09-12T08:30:58.986Z,16.22
2022-09-12T08:31:58.855Z,16.25
2022-09-12T08:32:58.847Z,16.30
2022-09-12T08:33:58.858Z,16.33
2022-09-12T08:34:58.828Z,16.37
2022-09-12T08:35:58.808Z,16.41
2022-09-12T08:36:58.822Z,16.45
2022-09-12T08:37:58.799Z,16.50
2022-09-12T08:39:00.277Z,16.54
2022-09-12T08:39:58.827Z,16.57
2022-09-12T08:40:58.785Z,16.60
2022-09-12T08:41:58.817Z,16.69
2022-09-12T08:42:58.760Z,16.70
2022-09-12T08:43:58.755Z,16.75
2022-09-12T08:44:58.741Z,16.78
2022-09-12T08:45:58.805Z,16.81
2022-09-12T08:46:58.736Z,16.84
2022-09-12T08:47:58.703Z,16.85
2022-09-12T08:48:58.705Z,16.87
2022-09-12T08:49:58.693Z,16.91
2022-09-12T08:50:58.686Z,16.92
2022-09-12T08:51:58.673Z,16.92
2022-09-12T08:52:58.849Z,16.95
2022-09-12T08:53:58.666Z,16.95
2022-09-12T08:54:58.659Z,16.96
2022-09-12T08:55:58.635Z,16.96
2022-09-12T08:56:58.642Z,16.96
2022-09-12T08:57:58.650Z,16.98
2022-09-12T08:58:58.615Z,17.00
2022-09-12T08:59:58.610Z,17.02
2022-09-12T09:00:58.597Z,17.05
2022-09-12T09:01:58.695Z,17.07
2022-09-12T09:04:09.831Z,17.14
2022-09-12T09:05:09.811Z,17.15
2022-09-12T09:06:09.803Z,17.22
2022-09-12T09:07:09.806Z,17.27
2022-09-12T09:08:09.796Z,17.32
2022-09-12T09:09:09.783Z,17.33
2022-09-12T09:10:09.796Z,17.39
2022-09-12T09:11:09.777Z,17.43
2022-09-12T09:12:09.753Z,17.47
2022-09-12T09:13:09.746Z,17.53
2022-09-12T09:14:09.741Z,17.54
2022-09-12T09:15:09.740Z,17.57
2022-09-12T09:16:09.769Z,17.62
2022-09-12T09:17:09.729Z,17.62
2022-09-12T09:18:09.713Z,17.65
2022-09-12T09:19:09.710Z,17.70
2022-09-12T09:20:09.698Z,17.73
2022-09-12T09:21:09.678Z,17.77
2022-09-12T09:22:09.692Z,17.79
2022-09-12T09:23:09.680Z,17.83
2022-09-12T09:24:09.672Z,17.87
2022-09-12T09:25:09.640Z,17.94
2022-09-12T09:26:09.630Z,18.01
2022-09-12T09:27:29.809Z,18.05
2022-09-12T09:28:09.654Z,18.11
2022-09-12T09:29:09.625Z,18.17
2022-09-12T09:30:09.692Z,18.20
2022-09-12T09:31:09.649Z,18.25
2022-09-12T09:32:09.594Z,18.29
2022-09-12T09:33:09.586Z,18.34
2022-09-12T09:34:09.573Z,18.36
2022-09-12T09:35:09.555Z,18.39
2022-09-12T09:36:09.557Z,18.44
2022-09-12T09:37:09.546Z,18.46
2022-09-12T09:38:09.525Z,18.47
2022-09-12T09:39:09.538Z,18.50
2022-09-12T09:40:09.597Z,18.50
2022-09-12T09:41:09.521Z,18.50
2022-09-12T09:42:09.496Z,18.53
2022-09-12T09:43:09.520Z,18.56
2022-09-12T09:44:09.479Z,18.57
2022-09-12T09:45:09.488Z,18.57
2022-09-12T09:46:09.511Z,18.60
2022-09-12T09:47:09.459Z,18.60
2022-09-12T09:48:09.452Z,18.64
2022-09-12T09:49:09.438Z,18.65
2022-09-12T09:50:09.440Z,18.66
2022-09-12T09:51:09.419Z,18.69
2022-09-12T09:52:09.443Z,18.71
2022-09-12T09:53:09.414Z,18.75
2022-09-12T09:54:09.404Z,18.75
2022-09-12T09:55:09.402Z,18.78
2022-09-12T09:56:09.385Z,18.79
2022-09-12T09:57:09.386Z,18.83
2022-09-12T09:58:09.386Z,18.86
2022-09-12T09:59:09.367Z,18.87
2022-09-12T10:00:09.343Z,18.91
2022-09-12T10:01:09.343Z,18.93
2022-09-12T10:02:09.367Z,18.96
2022-09-12T10:03:13.474Z,18.99
2022-09-12T10:04:09.325Z,19.02
2022-09-12T10:05:09.317Z,19.05
2022-09-12T10:06:09.310Z,19.07
2022-09-12T10:07:09.299Z,19.10
2022-09-12T10:08:09.267Z,19.12
2022-09-12T10:09:09.282Z,19.15
2022-09-12T10:10:09.280Z,19.16
2022-09-12T10:11:09.259Z,19.16
2022-09-12T10:12:09.272Z,19.17
2022-09-12T10:13:09.292Z,19.20
2022-09-12T10:14:09.232Z,19.21
2022-09-12T10:15:09.229Z,19.24
2022-09-12T10:16:09.244Z,19.24
2022-09-12T10:17:09.213Z,19.24
2022-09-12T10:18:09.203Z,19.24
2022-09-12T10:19:09.195Z,19.23
2022-09-12T10:20:20.880Z,19.23
2022-09-12T10:21:09.189Z,19.20
2022-09-12T10:22:09.184Z,19.21
2022-09-12T10:23:09.153Z,19.21
2022-09-12T10:24:09.133Z,19.24
2022-09-12T10:25:09.133Z,19.27
2022-09-12T10:26:09.126Z,19.24
2022-09-12T10:27:09.126Z,19.24
2022-09-12T10:28:09.104Z,19.25
2022-09-12T10:29:09.115Z,19.28
2022-09-12T10:30:09.126Z,19.28
2022-09-12T10:31:09.139Z,19.25
2022-09-12T10:32:09.079Z,19.27
2022-09-12T10:33:09.066Z,19.27
2022-09-12T10:34:09.065Z,19.28
2022-09-12T10:35:09.100Z,19.28
2022-09-12T10:36:09.038Z,19.30
2022-09-12T10:37:09.041Z,19.28
2022-09-12T10:38:09.032Z,19.28
2022-09-12T10:39:09.059Z,19.28
2022-09-12T10:40:09.054Z,19.30
2022-09-12T10:41:09.000Z,19.31
2022-09-12T10:42:08.980Z,19.34
2022-09-12T10:43:08.981Z,19.35
2022-09-12T10:44:08.971Z,19.38
2022-09-12T10:45:08.975Z,19.38
2022-09-12T10:46:08.997Z,19.39
2022-09-12T10:47:08.952Z,19.40
2022-09-12T10:48:08.932Z,19.42
2022-09-12T10:49:08.933Z,19.40
2022-09-12T10:50:08.927Z,19.45
2022-09-12T10:51:08.915Z,19.42
2022-09-12T10:52:08.915Z,19.43
2022-09-12T10:53:08.909Z,19.43
2022-09-12T10:54:08.885Z,19.46
2022-09-12T10:55:08.889Z,19.47
2022-09-12T10:56:08.866Z,19.50
2022-09-12T10:57:08.870Z,19.50
2022-09-12T10:58:08.962Z,19.53
2022-09-12T10:59:08.848Z,19.53
2022-09-12T11:00:08.828Z,19.57
2022-09-12T11:01:08.875Z,19.55
2022-09-12T11:02:08.856Z,19.58
2022-09-12T11:03:08.811Z,19.57
2022-09-12T11:04:08.823Z,19.58
2022-09-12T11:05:08.791Z,19.61
2022-09-12T11:06:08.781Z,19.61
2022-09-12T11:07:08.780Z,19.58
2022-09-12T11:08:08.760Z,19.60
2022-09-12T11:09:08.762Z,19.61
2022-09-12T11:10:08.752Z,19.65
2022-09-12T11:11:08.743Z,19.65
2022-09-12T11:12:08.743Z,19.65
2022-09-12T11:13:08.723Z,19.68
2022-09-12T11:14:08.713Z,19.72
2022-09-12T11:15:08.727Z,19.70
2022-09-12T11:16:08.746Z,19.71
2022-09-12T11:17:12.796Z,19.75
2022-09-12T11:18:08.688Z,19.72
2022-09-12T11:19:08.675Z,19.76
2022-09-12T11:20:08.659Z,19.76
2022-09-12T11:21:08.657Z,19.79
2022-09-12T11:22:08.670Z,19.82
2022-09-12T11:23:08.639Z,19.83
2022-09-12T11:24:08.628Z,19.85
2022-09-12T11:25:08.619Z,19.85
2022-09-12T11:26:08.608Z,19.86
2022-09-12T11:27:08.608Z,19.89
2022-09-12T11:28:08.602Z,19.89
2022-09-12T11:29:08.590Z,19.85
2022-09-12T11:30:08.577Z,19.86
2022-09-12T11:31:08.624Z,19.86
2022-09-12T11:32:08.574Z,19.87
2022-09-12T11:33:08.552Z,19.86
2022-09-12T11:34:08.564Z,19.86
2022-09-12T11:35:08.544Z,19.85
2022-09-12T11:36:08.536Z,19.85
2022-09-12T11:37:10.926Z,19.86
2022-09-12T11:38:08.503Z,19.85
2022-09-12T11:39:08.509Z,19.85
2022-09-12T11:40:08.574Z,19.86
2022-09-12T11:41:08.484Z,19.87
2022-09-12T11:42:08.475Z,19.85
2022-09-12T11:43:08.479Z,19.86
2022-09-12T11:44:08.469Z,19.89
2022-09-12T11:45:08.459Z,19.87
2022-09-12T11:46:08.468Z,19.87
2022-09-12T11:47:08.452Z,19.87
2022-09-12T11:48:08.438Z,19.89
2022-09-12T11:49:08.431Z,19.89
2022-09-12T11:50:08.422Z,19.87
2022-09-12T11:51:08.407Z,19.90
2022-09-12T11:52:08.409Z,19.92
2022-09-12T11:53:08.390Z,19.90
2022-09-12T11:54:08.384Z,19.89
2022-09-12T11:55:08.384Z,19.89
2022-09-12T11:56:08.365Z,19.90
2022-09-12T11:57:08.351Z,19.90
2022-09-12T11:58:08.360Z,19.92
2022-09-12T11:59:08.346Z,19.90
2022-09-12T12:00:08.337Z,19.90
2022-09-12T12:01:08.336Z,19.94
2022-09-12T12:02:08.344Z,19.94
2022-09-12T12:03:08.392Z,19.94
2022-09-12T12:04:08.338Z,19.94
2022-09-12T12:05:08.284Z,19.95
2022-09-12T12:06:08.275Z,19.97
2022-09-12T12:07:08.265Z,19.97
2022-09-12T12:08:08.269Z,19.97
2022-09-12T12:09:08.273Z,19.97
2022-09-12T12:10:08.280Z,19.95
2022-09-12T12:11:08.248Z,19.97
2022-09-12T12:12:08.253Z,19.94
2022-09-12T12:13:13.291Z,19.97
2022-09-12T12:14:08.206Z,19.95
2022-09-12T12:15:08.212Z,19.95
2022-09-12T12:16:08.331Z,20.00
2022-09-12T12:17:08.180Z,19.98
2022-09-12T12:18:08.185Z,20.01
2022-09-12T12:19:10.748Z,20.01
2022-09-12T12:20:08.893Z,20.02
2022-09-12T12:21:08.163Z,20.04
2022-09-12T12:22:08.161Z,20.04
2022-09-12T12:23:08.149Z,20.07
2022-09-12T12:24:08.126Z,20.05
2022-09-12T12:25:08.114Z,20.07
2022-09-12T12:26:08.115Z,20.07
2022-09-12T12:27:08.109Z,20.07
2022-09-12T12:28:08.108Z,20.05
2022-09-12T12:29:08.088Z,20.05
2022-09-12T12:30:08.086Z,20.08
2022-09-12T12:31:08.133Z,20.08
2022-09-12T12:32:08.046Z,20.10
2022-09-12T12:33:08.046Z,20.12
2022-09-12T12:34:08.060Z,20.12
2022-09-12T12:35:08.028Z,20.15
2022-09-12T12:36:08.020Z,20.15
2022-09-12T12:37:08.029Z,20.16
2022-09-12T12:38:08.012Z,20.17
2022-09-12T12:39:08.012Z,20.19
2022-09-12T12:40:08.087Z,20.20
2022-09-12T12:41:07.993Z,20.19
2022-09-12T12:42:07.975Z,20.22
2022-09-12T12:43:07.965Z,20.23
2022-09-12T12:44:07.951Z,20.22
2022-09-12T12:45:07.942Z,20.22
2022-09-12T12:46:08.016Z,20.25
2022-09-12T12:47:07.922Z,20.23
2022-09-12T12:48:08.294Z,20.25
2022-09-12T12:49:07.925Z,20.25
2022-09-12T12:50:07.964Z,20.27
2022-09-12T12:51:07.910Z,20.26
2022-09-12T12:52:07.904Z,20.26
2022-09-12T12:53:07.874Z,20.27